Time;durP1;ratioP1;P1;durP2;ratioP2;P2;SDS_P1;SDS_P2;PMS_P1;PMS_P2;Temp;Humidity;BMP_temperature;BMP_pressure;BME280_temperature;BME280_humidity;BME280_pressure;Samples;Min_cycle;Max_cycle;Signal;HPM_P1;HPM_P2
2023/12/16 00:00:44;;;;;;;4.88;2.85;;;9.50;99.90;;;;;;5016439;28;20262;-64
2023/12/16 00:03:13;;;;;;;10.95;3.03;;;9.50;99.90;;;;;;5006647;28;20265;-64
2023/12/16 00:05:39;;;;;;;5.68;2.85;;;9.60;99.90;;;;;;5009950;28;20186;-64
2023/12/16 00:08:05;;;;;;;5.80;3.00;;;9.50;99.90;;;;;;5014054;28;20174;-64
2023/12/16 00:10:30;;;;;;;7.00;2.97;;;9.50;99.90;;;;;;5000347;28;20189;-64
2023/12/16 00:12:56;;;;;;;8.45;3.13;;;9.50;99.90;;;;;;5012155;28;20253;-63
2023/12/16 00:15:24;;;;;;;6.40;2.50;;;9.60;99.90;;;;;;5013026;28;20224;-64
2023/12/16 00:17:52;;;;;;;6.20;2.88;;;9.50;99.90;;;;;;5006247;28;20207;-64
2023/12/16 00:20:17;;;;;;;6.97;2.90;;;9.50;99.90;;;;;;5008340;28;20174;-65
2023/12/16 00:22:48;;;;;;;6.13;2.70;;;9.50;99.90;;;;;;5007133;28;20294;-64
2023/12/16 00:25:13;;;;;;;6.35;2.75;;;9.50;99.90;;;;;;5016028;28;20233;-64
2023/12/16 00:27:39;;;;;;;5.15;2.78;;;9.50;99.90;;;;;;5015816;28;20187;-64
2023/12/16 00:30:08;;;;;;;3.65;2.17;;;9.50;99.90;;;;;;5015552;28;20177;-64
2023/12/16 00:32:33;;;;;;;5.82;2.90;;;9.50;99.90;;;;;;4996020;28;20203;-65
2023/12/16 00:35:02;;;;;;;6.88;2.80;;;9.50;99.90;;;;;;5011196;28;20269;-64
2023/12/16 00:37:30;;;;;;;5.28;2.65;;;9.50;99.90;;;;;;5015614;28;20205;-64
2023/12/16 00:39:56;;;;;;;5.53;2.35;;;9.50;99.90;;;;;;5019767;28;20185;-63
2023/12/16 00:42:21;;;;;;;8.95;2.92;;;9.50;99.90;;;;;;5015621;28;20202;-64
2023/12/16 00:44:47;;;;;;;6.30;2.38;;;9.50;99.90;;;;;;5014926;28;20266;-64
2023/12/16 00:47:12;;;;;;;5.05;2.60;;;9.50;99.90;;;;;;5014066;28;20175;-64
2023/12/16 00:49:38;;;;;;;4.63;2.60;;;9.50;99.90;;;;;;5014702;28;20186;-64
2023/12/16 00:52:04;;;;;;;5.07;2.85;;;9.50;99.90;;;;;;5012739;28;20233;-63
2023/12/16 00:54:32;;;;;;;5.57;2.70;;;9.50;99.90;;;;;;5022343;28;20186;-63
2023/12/16 00:56:57;;;;;;;4.82;2.55;;;9.50;99.90;;;;;;5002548;28;20257;-63
2023/12/16 00:59:28;;;;;;;10.18;3.00;;;9.50;99.90;;;;;;5012312;28;20325;-63
2023/12/16 01:01:53;;;;;;;6.93;2.83;;;9.50;99.90;;;;;;5006971;28;20183;-63
2023/12/16 01:04:19;;;;;;;6.20;2.67;;;9.50;99.90;;;;;;5018724;28;20182;-65
2023/12/16 01:06:45;;;;;;;5.35;2.58;;;9.50;99.90;;;;;;5015559;28;20190;-64
2023/12/16 01:09:10;;;;;;;5.72;3.00;;;9.50;99.90;;;;;;5013440;28;20167;-63
2023/12/16 01:11:36;;;;;;;5.72;2.40;;;9.50;99.90;;;;;;5011391;28;20386;-64
2023/12/16 01:14:02;;;;;;;6.72;2.60;;;9.50;99.90;;;;;;5014481;28;20194;-64
2023/12/16 01:16:28;;;;;;;5.15;2.42;;;9.50;99.90;;;;;;5013925;28;20197;-64
2023/12/16 01:18:54;;;;;;;6.65;2.60;;;9.50;99.90;;;;;;5014010;28;20179;-64
2023/12/16 01:21:24;;;;;;;5.68;2.60;;;9.50;99.90;;;;;;5014147;28;20221;-64
2023/12/16 01:23:52;;;;;;;4.93;2.53;;;9.50;99.90;;;;;;5011590;28;20202;-64
2023/12/16 01:26:18;;;;;;;5.15;2.45;;;9.50;99.90;;;;;;4998576;28;20179;-63
2023/12/16 01:28:44;;;;;;;5.55;2.40;;;9.50;99.90;;;;;;5013583;28;20220;-63
2023/12/16 01:31:12;;;;;;;5.97;2.42;;;9.50;99.90;;;;;;5014019;28;20178;-63
2023/12/16 01:33:37;;;;;;;5.07;2.28;;;9.50;99.90;;;;;;5009933;28;20246;-63
2023/12/16 01:36:08;;;;;;;4.85;2.15;;;9.50;99.90;;;;;;5014427;28;20268;-64
2023/12/16 01:38:35;;;;;;;5.43;2.40;;;9.50;99.90;;;;;;4999198;28;20293;-63
2023/12/16 01:41:01;;;;;;;4.85;2.38;;;9.50;99.90;;;;;;5014594;28;20190;-63
2023/12/16 01:43:27;;;;;;;4.63;2.47;;;9.50;99.90;;;;;;5014073;28;20202;-63
2023/12/16 01:46:01;;;;;;;5.72;2.50;;;9.50;99.90;;;;;;5013577;28;20175;-64
2023/12/16 01:48:29;;;;;;;7.05;2.50;;;9.50;99.90;;;;;;5010862;28;20179;-65
2023/12/16 01:50:55;;;;;;;5.70;2.45;;;9.50;99.90;;;;;;5000124;28;20185;-62
2023/12/16 01:53:24;;;;;;;3.13;2.10;;;9.50;99.90;;;;;;5003317;28;20241;-64
2023/12/16 01:55:50;;;;;;;6.03;2.42;;;9.50;99.90;;;;;;5013600;28;20214;-63
2023/12/16 01:58:15;;;;;;;3.72;2.10;;;9.50;99.90;;;;;;5012281;28;20198;-63
2023/12/16 02:00:42;;;;;;;5.90;2.55;;;9.50;99.90;;;;;;5004666;28;20206;-63
2023/12/16 02:03:08;;;;;;;4.88;2.42;;;9.50;99.90;;;;;;5013706;28;20214;-64
2023/12/16 02:05:33;;;;;;;3.22;2.00;;;9.50;99.90;;;;;;5013093;28;20175;-64
2023/12/16 02:08:01;;;;;;;4.97;2.25;;;9.50;99.90;;;;;;5014166;28;20375;-64
2023/12/16 02:10:31;;;;;;;3.97;2.03;;;9.40;99.90;;;;;;5009847;28;20203;-63
2023/12/16 02:12:57;;;;;;;5.32;2.20;;;9.50;99.90;;;;;;5013636;28;20232;-63
2023/12/16 02:15:23;;;;;;;7.57;2.42;;;9.50;99.90;;;;;;5011362;28;20174;-64
2023/12/16 02:17:50;;;;;;;4.90;2.17;;;9.50;99.90;;;;;;5009411;28;20233;-65
2023/12/16 02:20:18;;;;;;;5.75;2.17;;;9.50;99.90;;;;;;5010877;28;20184;-64
2023/12/16 02:22:46;;;;;;;5.05;1.88;;;9.50;99.90;;;;;;4998316;28;20194;-64
2023/12/16 02:25:15;;;;;;;5.25;2.13;;;9.50;99.90;;;;;;4995473;28;20433;-64
2023/12/16 02:27:42;;;;;;;3.78;1.90;;;9.50;99.90;;;;;;5004243;28;20258;-64
2023/12/16 02:30:13;;;;;;;4.70;1.98;;;9.50;99.90;;;;;;5006037;28;20174;-65
2023/12/16 02:32:41;;;;;;;5.25;2.05;;;9.50;99.90;;;;;;4995004;28;20211;-65
2023/12/16 02:35:09;;;;;;;6.40;2.30;;;9.60;99.90;;;;;;5006021;28;20182;-64
2023/12/16 02:37:37;;;;;;;5.25;2.10;;;9.50;99.90;;;;;;5013555;28;20189;-62
2023/12/16 02:40:03;;;;;;;3.58;1.85;;;9.60;99.90;;;;;;5013359;28;20281;-62
2023/12/16 02:42:29;;;;;;;4.57;2.17;;;9.50;99.90;;;;;;5017897;28;20301;-63
2023/12/16 02:44:54;;;;;;;5.45;2.03;;;9.50;99.90;;;;;;5018029;28;20179;-63
2023/12/16 02:47:26;;;;;;;4.53;2.00;;;9.50;99.90;;;;;;5019578;28;20222;-63
2023/12/16 02:49:52;;;;;;;6.57;2.03;;;9.50;99.90;;;;;;5016701;28;20265;-63
2023/12/16 02:52:22;;;;;;;4.63;1.90;;;9.50;99.90;;;;;;5017718;28;20222;-63
2023/12/16 02:54:50;;;;;;;4.55;2.10;;;9.50;99.90;;;;;;5015359;28;20194;-62
2023/12/16 02:57:18;;;;;;;4.68;1.98;;;9.50;99.90;;;;;;5008543;28;20209;-63
2023/12/16 02:59:43;;;;;;;6.30;2.10;;;9.50;99.90;;;;;;5013260;28;20199;-64
2023/12/16 03:02:09;;;;;;;4.30;2.13;;;9.50;99.90;;;;;;5015718;28;20248;-63
2023/12/16 03:04:39;;;;;;;5.43;2.20;;;9.50;99.90;;;;;;5010939;28;20185;-63
2023/12/16 03:07:05;;;;;;;5.72;1.75;;;9.50;99.90;;;;;;5017085;28;20218;-63
2023/12/16 03:09:33;;;;;;;6.85;1.98;;;9.50;99.90;;;;;;5016627;28;20250;-64
2023/12/16 03:12:00;;;;;;;4.65;1.95;;;9.50;99.90;;;;;;5012589;28;20182;-63
2023/12/16 03:14:26;;;;;;;4.00;1.90;;;9.50;99.90;;;;;;5017510;28;20187;-62
2023/12/16 03:16:52;;;;;;;3.95;1.92;;;9.50;99.90;;;;;;5014120;28;20250;-62
2023/12/16 03:19:20;;;;;;;5.43;2.00;;;9.50;99.90;;;;;;5001867;28;20273;-63
2023/12/16 03:21:46;;;;;;;4.38;1.95;;;9.50;99.90;;;;;;5000562;28;20199;-63
2023/12/16 03:24:12;;;;;;;3.22;1.90;;;9.50;99.90;;;;;;5011738;28;20201;-63
2023/12/16 03:26:38;;;;;;;6.60;2.10;;;9.50;99.90;;;;;;5016892;28;20175;-63
2023/12/16 03:29:06;;;;;;;3.38;1.88;;;9.50;99.90;;;;;;5016789;28;20248;-63
2023/12/16 03:31:33;;;;;;;3.78;1.90;;;9.50;99.90;;;;;;5016623;28;20202;-64
2023/12/16 03:34:02;;;;;;;5.20;1.95;;;9.50;99.90;;;;;;5016925;28;20260;-64
2023/12/16 03:36:27;;;;;;;5.15;1.90;;;9.60;99.90;;;;;;5016955;28;20272;-64
2023/12/16 03:38:53;;;;;;;5.00;2.20;;;9.50;99.90;;;;;;5016096;28;20225;-63
2023/12/16 03:41:19;;;;;;;4.53;1.95;;;9.50;99.90;;;;;;5016943;28;20229;-63
2023/12/16 03:43:47;;;;;;;7.45;2.22;;;9.50;99.90;;;;;;5016738;28;20208;-64
2023/12/16 03:46:12;;;;;;;4.68;2.20;;;9.40;99.90;;;;;;5016780;28;20253;-63
2023/12/16 03:48:43;;;;;;;4.25;2.13;;;9.50;99.90;;;;;;5016590;28;20225;-64
2023/12/16 03:51:09;;;;;;;4.88;2.22;;;9.50;99.90;;;;;;5021730;28;20257;-71
2023/12/16 03:53:35;;;;;;;4.57;2.10;;;9.40;99.90;;;;;;5023671;28;20358;-72
2023/12/16 03:56:00;;;;;;;3.22;1.90;;;9.50;99.90;;;;;;5017030;28;20465;-72
2023/12/16 03:58:28;;;;;;;6.35;2.40;;;9.50;99.90;;;;;;5016514;28;20191;-71
2023/12/16 04:00:59;;;;;;;5.00;2.13;;;9.50;99.90;;;;;;5015852;28;20342;-72
2023/12/16 04:03:24;;;;;;;3.35;2.03;;;9.50;99.90;;;;;;5009494;28;20215;-72
2023/12/16 04:05:54;;;;;;;3.05;1.80;;;9.50;99.90;;;;;;5012300;28;20562;-71
2023/12/16 04:08:22;;;;;;;3.50;1.92;;;9.50;99.90;;;;;;5015747;28;20196;-72
2023/12/16 04:10:52;;;;;;;2.72;1.88;;;9.50;99.90;;;;;;5015606;28;20210;-72
2023/12/16 04:13:18;;;;;;;3.53;2.20;;;9.50;99.90;;;;;;5014024;28;20171;-71
2023/12/16 04:15:52;;;;;;;3.40;1.95;;;9.50;99.90;;;;;;5007892;28;20377;-71
2023/12/16 04:18:23;;;;;;;3.60;2.05;;;9.50;99.90;;;;;;4998898;28;20281;-72
2023/12/16 04:20:49;;;;;;;3.75;2.00;;;9.50;99.90;;;;;;5015791;28;20191;-72
2023/12/16 04:23:16;;;;;;;3.85;2.10;;;9.50;99.90;;;;;;5014969;28;20194;-72
2023/12/16 04:25:42;;;;;;;5.00;2.30;;;9.50;99.90;;;;;;5015916;28;20175;-72
2023/12/16 04:28:08;;;;;;;4.70;2.38;;;9.50;99.90;;;;;;5016491;28;20175;-71
2023/12/16 04:30:38;;;;;;;4.47;2.20;;;9.50;99.90;;;;;;5015305;28;20177;-72
2023/12/16 04:33:06;;;;;;;4.65;2.15;;;9.50;99.90;;;;;;5014764;28;20183;-72
2023/12/16 04:35:31;;;;;;;5.50;2.30;;;9.50;99.90;;;;;;5015117;28;20190;-72
2023/12/16 04:37:59;;;;;;;5.28;2.03;;;9.50;99.90;;;;;;5015198;28;20267;-71
2023/12/16 04:40:25;;;;;;;3.35;1.88;;;9.50;99.90;;;;;;5015102;28;20254;-72
2023/12/16 04:42:51;;;;;;;4.38;2.20;;;9.50;99.90;;;;;;5007331;28;20278;-71
2023/12/16 04:45:19;;;;;;;5.35;1.95;;;9.50;99.90;;;;;;5012806;28;20446;-72
2023/12/16 04:47:47;;;;;;;5.75;2.42;;;9.50;99.90;;;;;;5014724;28;20174;-71
2023/12/16 04:50:15;;;;;;;3.03;1.90;;;9.50;99.90;;;;;;5008420;28;20171;-71
2023/12/16 04:52:42;;;;;;;5.43;2.00;;;9.50;99.90;;;;;;5013108;28;20234;-72
2023/12/16 04:55:09;;;;;;;5.78;2.10;;;9.50;99.90;;;;;;5000527;28;20221;-72
2023/12/16 04:57:35;;;;;;;5.10;1.90;;;9.50;99.90;;;;;;5009090;28;20182;-72
2023/12/16 05:00:07;;;;;;;5.53;2.20;;;9.50;99.90;;;;;;5015464;28;20175;-71
2023/12/16 05:02:33;;;;;;;3.50;1.80;;;9.50;99.90;;;;;;5014272;28;20213;-71
2023/12/16 05:05:01;;;;;;;3.58;1.90;;;9.50;99.90;;;;;;5015215;28;20186;-72
2023/12/16 05:07:27;;;;;;;3.95;1.98;;;9.50;99.90;;;;;;5015469;28;20438;-72
2023/12/16 05:09:52;;;;;;;5.03;2.10;;;9.50;99.90;;;;;;5014948;28;20177;-70
2023/12/16 05:12:23;;;;;;;3.97;1.90;;;9.50;99.90;;;;;;4996285;28;20207;-72
2023/12/16 05:14:50;;;;;;;6.10;1.83;;;9.60;99.90;;;;;;5013977;28;20198;-72
2023/12/16 05:17:19;;;;;;;2.83;1.67;;;9.60;99.90;;;;;;5014353;28;20266;-72
2023/12/16 05:19:47;;;;;;;3.75;1.75;;;9.60;99.90;;;;;;5013602;28;20206;-71
2023/12/16 05:22:18;;;;;;;4.55;1.85;;;9.60;99.90;;;;;;5013970;28;20233;-69
2023/12/16 05:24:43;;;;;;;5.07;1.90;;;9.60;99.90;;;;;;5012725;28;20206;-72
2023/12/16 05:27:11;;;;;;;4.45;1.80;;;9.60;99.90;;;;;;5009555;28;20229;-73
2023/12/16 05:29:37;;;;;;;5.22;1.90;;;9.60;99.90;;;;;;5012549;28;20221;-71
2023/12/16 05:32:03;;;;;;;4.10;2.13;;;9.60;99.90;;;;;;5011207;28;20187;-71
2023/12/16 05:34:29;;;;;;;5.45;2.00;;;9.60;99.90;;;;;;5009367;28;20198;-68
2023/12/16 05:36:57;;;;;;;4.47;1.88;;;9.70;99.90;;;;;;5013274;28;20261;-70
2023/12/16 05:39:26;;;;;;;7.25;2.25;;;9.60;99.90;;;;;;5013564;28;20182;-70
2023/12/16 05:41:56;;;;;;;5.00;1.98;;;9.60;99.90;;;;;;5014032;28;20213;-71
2023/12/16 05:44:24;;;;;;;3.75;1.92;;;9.60;99.90;;;;;;5012412;28;20178;-71
2023/12/16 05:46:51;;;;;;;4.90;2.00;;;9.60;99.90;;;;;;5001542;28;20167;-70
2023/12/16 05:49:16;;;;;;;5.18;1.88;;;9.60;99.90;;;;;;5014693;28;20185;-72
2023/12/16 05:51:44;;;;;;;4.18;2.00;;;9.60;99.90;;;;;;5004928;28;20163;-71
2023/12/16 05:54:10;;;;;;;2.88;1.83;;;9.60;99.90;;;;;;5023238;28;20185;-72
2023/12/16 05:56:40;;;;;;;4.53;2.00;;;9.60;99.90;;;;;;5000486;28;20191;-72
2023/12/16 05:59:06;;;;;;;5.00;2.00;;;9.60;99.90;;;;;;5012838;28;20200;-71
2023/12/16 06:01:32;;;;;;;3.55;1.63;;;9.60;99.90;;;;;;5017151;28;20174;-71
2023/12/16 06:03:57;;;;;;;3.53;1.75;;;9.70;99.90;;;;;;5013093;28;20237;-68
2023/12/16 06:06:25;;;;;;;4.22;1.60;;;9.70;99.90;;;;;;5018532;28;20190;-71
2023/12/16 06:08:53;;;;;;;6.43;2.00;;;9.70;99.90;;;;;;5013935;28;20183;-70
2023/12/16 06:11:21;;;;;;;3.80;1.45;;;9.60;99.90;;;;;;5013897;28;20205;-72
2023/12/16 06:13:50;;;;;;;4.00;1.67;;;9.70;99.90;;;;;;5005306;28;20186;-71
2023/12/16 06:16:16;;;;;;;4.10;1.92;;;9.70;99.90;;;;;;5013257;28;20183;-71
2023/12/16 06:18:46;;;;;;;3.80;1.70;;;9.70;99.90;;;;;;5018003;28;20275;-72
2023/12/16 06:21:15;;;;;;;3.70;1.65;;;9.70;99.90;;;;;;5017846;28;20183;-71
2023/12/16 06:23:41;;;;;;;4.05;1.65;;;9.60;99.90;;;;;;5017736;28;20230;-70
2023/12/16 06:26:11;;;;;;;3.78;1.77;;;9.70;99.90;;;;;;5011963;28;20202;-70
2023/12/16 06:28:39;;;;;;;5.93;1.73;;;9.60;99.90;;;;;;5004317;28;20175;-71
2023/12/16 06:31:07;;;;;;;5.07;1.98;;;9.60;99.90;;;;;;5017816;28;20194;-70
2023/12/16 06:33:33;;;;;;;4.10;1.80;;;9.60;99.90;;;;;;5017635;28;20178;-71
2023/12/16 06:35:58;;;;;;;7.18;2.40;;;9.60;99.90;;;;;;5017660;28;20266;-71
2023/12/16 06:38:24;;;;;;;4.10;2.00;;;9.60;99.90;;;;;;5017861;28;20397;-70
2023/12/16 06:40:50;;;;;;;4.85;1.90;;;9.60;99.90;;;;;;5016366;28;20182;-71
2023/12/16 06:43:16;;;;;;;4.10;1.65;;;9.60;99.90;;;;;;5017438;28;20203;-72
2023/12/16 06:45:41;;;;;;;5.22;1.90;;;9.60;99.90;;;;;;5010902;28;20201;-72
2023/12/16 06:48:07;;;;;;;3.78;1.98;;;9.60;99.90;;;;;;5016525;28;20170;-71
2023/12/16 06:50:35;;;;;;;4.82;1.63;;;9.70;99.90;;;;;;5017359;28;20186;-71
2023/12/16 06:53:03;;;;;;;6.22;1.83;;;9.60;99.90;;;;;;5017892;28;20229;-72
2023/12/16 06:55:28;;;;;;;4.40;2.03;;;9.70;99.90;;;;;;5017146;28;20194;-71
2023/12/16 06:57:56;;;;;;;5.40;1.52;;;9.60;99.90;;;;;;5013629;28;20221;-70
2023/12/16 07:00:22;;;;;;;3.92;1.75;;;9.60;99.90;;;;;;5008587;28;20240;-71
2023/12/16 07:02:49;;;;;;;5.55;1.90;;;9.60;99.90;;;;;;5016219;28;20218;-72
2023/12/16 07:05:17;;;;;;;3.45;2.10;;;9.60;99.90;;;;;;5017349;28;20174;-72
2023/12/16 07:07:44;;;;;;;4.13;1.80;;;9.60;99.90;;;;;;5016778;28;20191;-71
2023/12/16 07:10:10;;;;;;;5.05;2.90;;;9.60;99.90;;;;;;5017601;28;20221;-72
2023/12/16 07:12:38;;;;;;;6.45;2.17;;;9.60;99.90;;;;;;5017419;28;20175;-72
2023/12/16 07:15:04;;;;;;;5.95;1.83;;;9.70;99.90;;;;;;5016118;28;20183;-71
2023/12/16 07:17:34;;;;;;;4.90;1.75;;;9.60;99.90;;;;;;5012082;28;20198;-72
2023/12/16 07:20:02;;;;;;;4.28;1.73;;;9.70;99.90;;;;;;4997908;28;20257;-72
2023/12/16 07:22:29;;;;;;;4.45;2.08;;;9.60;99.90;;;;;;5007860;28;20198;-73
2023/12/16 07:24:57;;;;;;;4.57;1.60;;;9.70;99.90;;;;;;5017129;28;20179;-72
2023/12/16 07:27:23;;;;;;;5.07;1.88;;;9.60;99.90;;;;;;5015768;28;20194;-72
2023/12/16 07:29:57;;;;;;;4.07;1.65;;;9.60;99.90;;;;;;5016773;28;20181;-72
2023/12/16 07:32:23;;;;;;;3.63;1.50;;;9.70;99.90;;;;;;5005635;28;20186;-73
2023/12/16 07:34:51;;;;;;;5.13;2.15;;;9.70;99.90;;;;;;5017154;28;20170;-71
2023/12/16 07:37:20;;;;;;;4.80;1.83;;;9.70;99.90;;;;;;5016849;28;20179;-72
2023/12/16 07:39:46;;;;;;;5.22;1.90;;;9.70;99.90;;;;;;5016965;28;20215;-71
2023/12/16 07:42:13;;;;;;;5.15;1.88;;;9.70;99.90;;;;;;5005372;28;20415;-72
2023/12/16 07:44:38;;;;;;;4.40;1.73;;;9.70;99.90;;;;;;5001072;28;20249;-72
2023/12/16 07:47:04;;;;;;;3.88;1.50;;;9.70;99.90;;;;;;5016504;28;20237;-70
2023/12/16 07:49:29;;;;;;;3.85;1.67;;;9.70;99.90;;;;;;5015403;28;20212;-71
2023/12/16 07:51:58;;;;;;;6.53;1.83;;;9.70;99.90;;;;;;5016323;28;20509;-72
2023/12/16 07:54:29;;;;;;;3.70;1.85;;;9.70;99.90;;;;;;5034131;28;20198;-71
2023/12/16 07:56:55;;;;;;;2.90;1.60;;;9.70;99.90;;;;;;5015973;28;20186;-71
2023/12/16 07:59:21;;;;;;;3.22;1.55;;;9.70;99.90;;;;;;5015830;28;20198;-71
2023/12/16 08:01:53;;;;;;;7.50;2.25;;;9.70;99.90;;;;;;5015896;28;20282;-72
2023/12/16 08:04:19;;;;;;;3.35;1.52;;;9.70;99.90;;;;;;5015442;28;20179;-70
2023/12/16 08:06:45;;;;;;;6.25;2.00;;;9.70;99.90;;;;;;5012363;28;20190;-72
2023/12/16 08:09:13;;;;;;;3.92;1.70;;;9.70;99.90;;;;;;4997534;28;20178;-71
2023/12/16 08:11:41;;;;;;;4.78;1.88;;;9.70;99.90;;;;;;5015840;28;20174;-71
2023/12/16 08:14:07;;;;;;;5.13;2.53;;;9.70;99.90;;;;;;5017320;28;20202;-72
2023/12/16 08:16:33;;;;;;;3.88;1.80;;;9.70;99.90;;;;;;5024803;28;20309;-71
2023/12/16 08:19:03;;;;;;;5.13;1.88;;;9.70;99.90;;;;;;5020876;28;20226;-71
2023/12/16 08:21:29;;;;;;;3.17;1.88;;;9.70;99.90;;;;;;5017131;28;20206;-71
2023/12/16 08:23:54;;;;;;;3.38;1.75;;;9.70;99.90;;;;;;5016511;28;20201;-71
2023/12/16 08:26:20;;;;;;;5.38;1.98;;;9.70;99.90;;;;;;5015773;28;20236;-72
2023/12/16 08:28:45;;;;;;;5.50;1.98;;;9.70;99.90;;;;;;5015652;28;20244;-72
2023/12/16 08:31:14;;;;;;;3.38;1.70;;;9.70;99.90;;;;;;5015863;28;20205;-72
2023/12/16 08:33:39;;;;;;;4.13;1.77;;;9.70;99.90;;;;;;5015451;28;20185;-71
2023/12/16 08:36:06;;;;;;;5.55;1.70;;;9.70;99.90;;;;;;5015641;28;20174;-72
2023/12/16 08:38:38;;;;;;;2.40;1.50;;;9.70;99.90;;;;;;5011166;28;20225;-71
2023/12/16 08:41:10;;;;;;;5.38;1.70;;;9.70;99.90;;;;;;5005988;28;20198;-70
2023/12/16 08:43:36;;;;;;;4.63;1.55;;;9.70;99.90;;;;;;5002867;28;20268;-71
2023/12/16 08:46:03;;;;;;;5.47;1.98;;;9.70;99.90;;;;;;5005406;28;20400;-72
2023/12/16 08:48:29;;;;;;;5.80;2.00;;;9.70;99.90;;;;;;5009822;28;20194;-71
2023/12/16 08:50:57;;;;;;;5.85;1.92;;;9.70;99.90;;;;;;5015345;28;20201;-71
2023/12/16 08:53:26;;;;;;;3.30;1.60;;;9.70;99.90;;;;;;5013882;28;20201;-71
2023/12/16 08:55:52;;;;;;;5.07;1.88;;;9.80;99.90;;;;;;5014924;28;20206;-71
2023/12/16 08:58:18;;;;;;;5.47;1.90;;;9.80;99.90;;;;;;5014389;28;20194;-72
2023/12/16 09:00:44;;;;;;;5.13;1.98;;;9.80;99.90;;;;;;5014665;28;20175;-72
2023/12/16 09:03:13;;;;;;;5.43;1.65;;;9.80;99.90;;;;;;5014859;28;20210;-70
2023/12/16 09:05:38;;;;;;;5.97;1.70;;;9.80;99.90;;;;;;5008623;28;20275;-71
2023/12/16 09:08:06;;;;;;;3.83;1.75;;;9.80;99.90;;;;;;5011588;28;20226;-71
2023/12/16 09:10:32;;;;;;;6.80;2.22;;;9.90;99.90;;;;;;5013965;28;20175;-72
2023/12/16 09:12:58;;;;;;;6.68;2.00;;;9.90;99.90;;;;;;5009768;28;20248;-72
2023/12/16 09:15:24;;;;;;;3.67;1.70;;;9.90;99.90;;;;;;5011973;28;20199;-72
2023/12/16 09:17:52;;;;;;;4.13;1.75;;;10.00;99.90;;;;;;5012675;28;20205;-71
2023/12/16 09:20:18;;;;;;;4.20;1.70;;;10.10;99.90;;;;;;5013965;28;20182;-71
2023/12/16 09:22:43;;;;;;;4.63;1.73;;;10.30;99.90;;;;;;5014325;28;20237;-71
2023/12/16 09:25:16;;;;;;;6.97;2.08;;;10.40;99.90;;;;;;5011790;28;20314;-72
2023/12/16 09:27:45;;;;;;;5.88;1.55;;;10.60;99.90;;;;;;5009757;28;20182;-71
2023/12/16 09:30:11;;;;;;;4.20;1.60;;;10.80;99.90;;;;;;5012122;28;20201;-71
2023/12/16 09:32:37;;;;;;;5.13;1.83;;;10.70;99.90;;;;;;5010758;28;20183;-72
2023/12/16 09:35:02;;;;;;;7.07;1.80;;;10.80;99.90;;;;;;5013859;28;20213;-71
2023/12/16 09:37:31;;;;;;;5.63;1.90;;;10.80;99.90;;;;;;5006260;28;20191;-71
2023/12/16 09:39:56;;;;;;;7.43;2.00;;;10.80;99.90;;;;;;5009725;28;20197;-71
2023/12/16 09:42:25;;;;;;;4.72;1.90;;;10.80;99.90;;;;;;5014154;28;20202;-72
2023/12/16 09:44:57;;;;;;;6.68;1.85;;;10.80;99.90;;;;;;5013386;28;20245;-70
2023/12/16 09:47:24;;;;;;;4.63;1.83;;;10.90;99.90;;;;;;5014647;28;20171;-71
2023/12/16 09:49:53;;;;;;;4.72;1.85;;;10.90;99.90;;;;;;5013669;28;20272;-72
2023/12/16 09:52:19;;;;;;;5.60;1.77;;;11.00;99.90;;;;;;5013652;28;20244;-71
2023/12/16 09:54:44;;;;;;;3.10;1.90;;;11.10;99.90;;;;;;5008075;28;20182;-70
2023/12/16 09:57:13;;;;;;;6.63;1.83;;;11.00;99.90;;;;;;5013853;28;20178;-71
2023/12/16 09:59:41;;;;;;;6.13;1.80;;;11.20;99.90;;;;;;5014581;28;20217;-71
2023/12/16 10:02:19;;;;;;;7.05;1.67;;;11.20;99.90;;;;;;5012957;28;20202;-72
2023/12/16 10:04:47;;;;;;;5.25;1.98;;;11.30;99.90;;;;;;5010749;28;20178;-73
2023/12/16 10:07:12;;;;;;;5.50;1.60;;;11.30;99.90;;;;;;5007536;28;20171;-70
2023/12/16 10:09:38;;;;;;;5.07;2.00;;;11.30;99.90;;;;;;5014108;28;20278;-71
2023/12/16 10:12:09;;;;;;;6.45;2.03;;;11.40;99.90;;;;;;5013997;28;20174;-72
2023/12/16 10:14:54;;;;;;;5.85;1.85;;;11.50;99.90;;;;;;5014607;28;20167;-71
2023/12/16 10:17:21;;;;;;;3.72;1.42;;;11.50;99.90;;;;;;5013416;28;20252;-71
2023/12/16 10:19:48;;;;;;;5.63;1.85;;;11.60;99.90;;;;;;5013907;28;20182;-71
2023/12/16 10:22:18;;;;;;;6.53;2.03;;;11.60;99.90;;;;;;5014219;28;20285;-71
2023/12/16 10:24:47;;;;;;;5.68;1.83;;;11.70;99.90;;;;;;5013741;28;20178;-71
2023/12/16 10:27:16;;;;;;;7.18;1.60;;;11.80;99.90;;;;;;5015033;28;20284;-72
2023/12/16 10:29:42;;;;;;;5.45;1.67;;;11.80;99.90;;;;;;5024170;28;20237;-72
2023/12/16 10:32:11;;;;;;;7.45;2.42;;;12.10;99.90;;;;;;5016238;28;20175;-71
2023/12/16 10:34:38;;;;;;;6.68;1.77;;;12.20;99.90;;;;;;5009859;28;20203;-72
2023/12/16 10:37:10;;;;;;;5.50;2.00;;;12.40;99.90;;;;;;4997483;28;20167;-71
2023/12/16 10:39:38;;;;;;;6.10;1.88;;;12.50;99.90;;;;;;5017276;28;20182;-71
2023/12/16 10:42:04;;;;;;;8.00;2.25;;;12.50;99.90;;;;;;5013508;28;20282;-71
2023/12/16 10:44:30;;;;;;;9.07;2.45;;;12.40;99.90;;;;;;5018477;28;20258;-72
2023/12/16 10:46:58;;;;;;;5.75;1.80;;;12.40;99.90;;;;;;5014203;28;20179;-72
2023/12/16 10:49:31;;;;;;;4.53;1.60;;;12.30;99.90;;;;;;5014636;28;20244;-71
2023/12/16 10:52:11;;;;;;;5.40;1.70;;;12.20;99.90;;;;;;5012567;28;20252;-71
2023/12/16 10:54:47;;;;;;;5.78;1.73;;;12.10;99.90;;;;;;5012936;28;20213;-73
2023/12/16 10:57:28;;;;;;;8.68;2.03;;;12.00;99.90;;;;;;4994234;28;20214;-71
2023/12/16 11:00:04;;;;;;;5.57;1.63;;;12.00;99.90;;;;;;5012697;28;20202;-72
2023/12/16 11:02:34;;;;;;;3.63;1.42;;;11.90;99.90;;;;;;5011601;28;20217;-72
2023/12/16 11:05:05;;;;;;;4.80;1.70;;;11.90;99.90;;;;;;4997616;28;20171;-72
2023/12/16 11:07:41;;;;;;;7.28;1.90;;;11.80;99.90;;;;;;5012478;28;20268;-72
2023/12/16 11:10:07;;;;;;;6.22;2.13;;;11.90;99.90;;;;;;5013417;28;20189;-72
2023/12/16 11:12:40;;;;;;;5.82;1.70;;;11.80;99.90;;;;;;5016540;28;20194;-73
2023/12/16 11:15:07;;;;;;;4.47;1.63;;;11.90;99.90;;;;;;4999605;28;20455;-72
2023/12/16 11:18:05;;;;;;;3.90;1.65;;;11.90;99.90;;;;;;5013312;28;20256;-73
2023/12/16 11:20:52;;;;;;;6.28;1.67;;;12.00;99.90;;;;;;4995519;28;20298;-72
2023/12/16 11:23:22;;;;;;;5.55;1.73;;;12.00;99.90;;;;;;4997727;28;20195;-73
2023/12/16 11:25:49;;;;;;;3.47;1.50;;;12.00;99.90;;;;;;5006046;28;20253;-72
2023/12/16 11:28:15;;;;;;;5.68;2.00;;;12.10;99.90;;;;;;5017248;28;20198;-72
2023/12/16 11:30:41;;;;;;;5.50;1.70;;;12.20;99.90;;;;;;5023092;28;20174;-73
2023/12/16 11:33:07;;;;;;;5.55;2.10;;;12.30;99.90;;;;;;5014084;28;20184;-73
2023/12/16 11:35:38;;;;;;;5.05;1.95;;;12.50;99.90;;;;;;5014339;28;20190;-72
2023/12/16 11:38:07;;;;;;;4.93;1.83;;;12.80;99.90;;;;;;5016503;28;20179;-74
2023/12/16 11:40:51;;;;;;;4.55;1.63;;;13.10;99.90;;;;;;5001903;28;20209;-74
2023/12/16 11:43:17;;;;;;;3.25;1.27;;;13.30;99.90;;;;;;5017117;28;20300;-74
2023/12/16 11:45:48;;;;;;;6.13;1.60;;;13.50;99.90;;;;;;5017082;28;20239;-73
2023/12/16 11:48:16;;;;;;;7.50;1.70;;;13.80;99.90;;;;;;5016614;28;20174;-73
2023/12/16 11:50:44;;;;;;;6.72;1.60;;;14.00;99.90;;;;;;5011253;28;20178;-72
2023/12/16 11:53:21;;;;;;;5.65;1.70;;;14.10;99.90;;;;;;5016652;28;20210;-74
2023/12/16 11:55:47;;;;;;;8.85;2.22;;;14.20;99.90;;;;;;5016899;28;20257;-73
2023/12/16 11:58:13;;;;;;;5.57;1.67;;;14.20;99.90;;;;;;5004743;28;20270;-73
2023/12/16 12:00:41;;;;;;;4.25;1.45;;;14.30;99.90;;;;;;5004110;28;20298;-63
2023/12/16 12:03:07;;;;;;;6.22;1.85;;;14.30;99.90;;;;;;5013504;28;20206;-65
2023/12/16 12:05:36;;;;;;;6.00;1.75;;;14.20;99.90;;;;;;5003980;28;20249;-64
2023/12/16 12:08:01;;;;;;;4.75;1.70;;;14.20;99.90;;;;;;5015843;28;20174;-64
2023/12/16 12:10:27;;;;;;;7.25;1.83;;;14.10;99.90;;;;;;5015396;28;20261;-65
2023/12/16 12:12:53;;;;;;;5.25;1.67;;;13.90;99.90;;;;;;5015486;28;20223;-65
2023/12/16 12:15:21;;;;;;;6.07;1.58;;;13.80;99.90;;;;;;5010745;28;20172;-66
2023/12/16 12:17:49;;;;;;;5.72;1.83;;;13.70;99.90;;;;;;5000477;28;20194;-65
2023/12/16 12:20:19;;;;;;;6.43;1.90;;;13.60;99.90;;;;;;5020394;28;20260;-65
2023/12/16 12:22:48;;;;;;;5.90;1.52;;;13.50;99.90;;;;;;5015514;28;20197;-64
2023/12/16 12:25:17;;;;;;;5.63;1.73;;;13.40;99.90;;;;;;5010735;28;20171;-65
2023/12/16 12:27:43;;;;;;;5.88;1.60;;;13.40;99.90;;;;;;5015244;28;20175;-66
2023/12/16 12:30:18;;;;;;;5.43;1.70;;;13.30;99.90;;;;;;5020045;28;20262;-64
2023/12/16 12:32:46;;;;;;;3.50;1.23;;;13.20;99.90;;;;;;5007717;28;20193;-64
2023/12/16 12:35:12;;;;;;;5.80;1.70;;;13.10;99.90;;;;;;5015484;28;20193;-64
2023/12/16 12:37:41;;;;;;;7.80;2.10;;;13.10;99.90;;;;;;4997451;28;20175;-64
2023/12/16 12:40:13;;;;;;;7.25;2.53;;;13.00;99.90;;;;;;5012417;28;20228;-65
2023/12/16 12:42:51;;;;;;;5.82;1.73;;;12.90;99.90;;;;;;5035328;28;20212;-65
2023/12/16 12:45:34;;;;;;;5.43;2.10;;;12.90;99.90;;;;;;4996146;28;20230;-64
2023/12/16 12:48:14;;;;;;;5.00;1.70;;;12.90;99.90;;;;;;5010006;28;20204;-64
2023/12/16 12:50:43;;;;;;;6.72;1.85;;;12.80;99.90;;;;;;5015437;28;20174;-64
2023/12/16 12:53:21;;;;;;;5.68;1.42;;;12.70;99.90;;;;;;5015347;28;20379;-65
2023/12/16 12:55:53;;;;;;;6.15;1.85;;;12.70;99.90;;;;;;5002596;28;20230;-65